首页
METAR-TAF:

METAR-TAF

机场 :

Norman Wells, 西北特區, 加拿大

纬度: 65-17N, 经度: 126-48W, 海拔: 67米

当前天气观测

该预报发布于1小时和8分钟前的07:00 UTC
风速4节,风向
温度 8°C
湿度 53%
气压 1025 hPa
能見度: 48.3公里
少量云层高于24000英尺

METAR: CYVQ 280700Z 09004KT 30SM FEW240 08/M01 A3028 RMK CI1 CI TR SLP260

时间: 02:08 (08:08 UTC)

预报

该预报发布于2小时和30分钟前的05:38 UTC
预报有效从28日的 06点(UTC)到 28日的 18点(UTC)
风速6节,风向东转东南
能見度: 10公里
少量云层高于24000英尺
从 28日的 1700点(UTC)
风速10节,风向东南
能見度: 10公里
天空无云

TAF: CYVQ 280538Z 2806/2818 12006KT P6SM FEW240 FM281700 13010KT P6SM SKC RMK NXT FCST BY 281200Z

超过4000个机场的气象观测和天气预报(METAR&TAF报告)。

可查询的气象台以黄色和红色小点在地图上表示。

将鼠标移到小点上方,可查看气象台名称。

然后点击查看天气观测和预报。

如需切换地图:点击带黑十字的绿色按钮放大地图;点击带横线的绿色按钮缩小地图;或者点击绿色箭头查看邻近地区的地图。


METAR-TAF: